This is the latest recevied weather packets stored in our database for station/object HP3ICC-14. If no packets are shown the sender has not sent any weather packets the latest 10 day(s).
| Time | Temp. | Humidity | Pressure | Rain* | Wind** | Luminosity | Snow |
|---|---|---|---|---|---|---|---|
| 1777912996 | 27.22° C | 58% | 1010 hPa | 0 mm | - | - | - |
| 1777912935 | 27.22° C | 58% | 1010 hPa | 0 mm | - | - | - |
| 1777911795 | 27.22° C | 61% | 1011 hPa | 0 mm | - | - | - |
| 1777911735 | 27.22° C | 61% | 1011 hPa | 0 mm | - | - | - |
| 1777910594 | 27.22° C | 60% | 1011 hPa | 0 mm | - | - | - |
| 1777910534 | 27.22° C | 60% | 1011 hPa | 0 mm | - | - | - |
| 1777909394 | 27.22° C | 62% | 1011 hPa | 0 mm | - | - | - |
| 1777909334 | 27.22° C | 62% | 1011 hPa | 0 mm | - | - | - |
| 1777908193 | 26.67° C | 67% | 1011 hPa | 0 mm | - | - | - |
| 1777908133 | 26.67° C | 67% | 1011 hPa | 0 mm | - | - | - |
| 1777906992 | 27.22° C | 67% | 1011 hPa | 0 mm | - | - | - |
| 1777906932 | 27.22° C | 67% | 1011 hPa | 0 mm | - | - | - |
| 1777905792 | 26.67° C | 73% | 1011 hPa | 0 mm | - | - | - |
| 1777905732 | 26.67° C | 73% | 1011 hPa | 0 mm | - | - | - |
| 1777904592 | 27.22° C | 73% | 1011 hPa | 0 mm | - | - | - |
| 1777904532 | 27.22° C | 73% | 1011 hPa | 0 mm | - | - | - |
| 1777903391 | 27.78° C | 73% | 1011 hPa | 0 mm | - | - | - |
| 1777903331 | 27.78° C | 73% | 1011 hPa | 0 mm | - | - | - |
| 1777902191 | 23.89° C | 80% | 1011 hPa | 0 mm | - | - | - |
| 1777902131 | 23.89° C | 80% | 1011 hPa | 0 mm | - | - | - |
| 1777900990 | 24.44° C | 80% | 1011 hPa | 0 mm | - | - | - |
| 1777900930 | 24.44° C | 80% | 1011 hPa | 0 mm | - | - | - |
| 1777899790 | 25° C | 80% | 1011 hPa | 0 mm | - | - | - |
| 1777899729 | 25° C | 80% | 1011 hPa | 0 mm | - | - | - |
| 1777898589 | 22.22° C | 88% | 1011 hPa | 0 mm | - | - | - |
* Rain latest hour (hover to see other rain measurements)
** Current wind speed in m/s (hover to see current wind gust speed)